Time;durP1;ratioP1;P1;durP2;ratioP2;P2;SDS_P1;SDS_P2;PMS_P1;PMS_P2;Temp;Humidity;BMP_temperature;BMP_pressure;BME280_temperature;BME280_humidity;BME280_pressure;Samples;Min_cycle;Max_cycle;Signal;HPM_P1;HPM_P2
2022/11/01 00:01:11;;;;;;;18.80;8.90;;;;;;;12.80;100.00;100257.78;5004653;28;20112;-77
2022/11/01 00:03:37;;;;;;;10.90;7.65;;;;;;;12.84;100.00;100275.09;5008105;28;20381;-77
2022/11/01 00:06:02;;;;;;;13.68;8.95;;;;;;;12.81;100.00;100280.66;5005866;28;20037;-76
2022/11/01 00:08:28;;;;;;;13.55;8.20;;;;;;;12.61;100.00;100280.63;5004124;28;20048;-77
2022/11/01 00:11:01;;;;;;;13.52;9.05;;;;;;;12.47;100.00;100270.47;5008019;28;20413;-78
2022/11/01 00:13:28;;;;;;;16.17;9.15;;;;;;;12.48;100.00;100276.59;5004571;28;20030;-77
2022/11/01 00:15:53;;;;;;;13.93;9.20;;;;;;;12.51;100.00;100274.50;5006960;28;20478;-78
2022/11/01 00:18:19;;;;;;;14.30;8.82;;;;;;;12.53;100.00;100261.97;5005177;28;20041;-79
2022/11/01 00:20:45;;;;;;;16.35;9.45;;;;;;;12.52;100.00;100262.09;5008809;28;20084;-78
2022/11/01 00:23:11;;;;;;;18.67;9.30;;;;;;;12.46;100.00;100260.84;5008690;28;20030;-78
2022/11/01 00:25:36;;;;;;;12.63;8.70;;;;;;;12.43;100.00;100255.81;5004689;28;20041;-78
2022/11/01 00:28:02;;;;;;;14.05;8.70;;;;;;;12.47;100.00;100254.59;5003861;28;20066;-78
2022/11/01 00:30:27;;;;;;;10.50;8.35;;;;;;;12.49;100.00;100249.13;5003880;28;20724;-78
2022/11/01 00:32:55;;;;;;;14.20;8.90;;;;;;;12.55;100.00;100265.31;5005937;28;20048;-77
2022/11/01 00:35:21;;;;;;;9.65;7.97;;;;;;;12.58;100.00;100259.75;5004342;28;20423;-77
2022/11/01 00:37:46;;;;;;;13.68;8.18;;;;;;;12.56;100.00;100260.84;5005889;28;20076;-77
2022/11/01 00:40:11;;;;;;;11.38;9.25;;;;;;;12.63;100.00;100265.47;5018929;28;20038;-78
2022/11/01 00:42:37;;;;;;;12.50;9.75;;;;;;;12.68;100.00;100265.88;5004078;28;20030;-77
2022/11/01 00:45:03;;;;;;;13.98;8.73;;;;;;;12.69;100.00;100267.56;5006966;28;20084;-78
2022/11/01 00:47:29;;;;;;;15.77;9.40;;;;;;;12.69;100.00;100266.72;5004342;28;20080;-77
2022/11/01 00:49:54;;;;;;;12.80;9.15;;;;;;;12.70;100.00;100269.22;5008955;28;20430;-77
2022/11/01 00:52:20;;;;;;;13.65;9.90;;;;;;;12.68;100.00;100267.69;5003939;28;20025;-77
2022/11/01 00:54:45;;;;;;;13.05;8.30;;;;;;;12.62;100.00;100266.44;5005762;28;20367;-77
2022/11/01 00:57:11;;;;;;;11.75;8.65;;;;;;;12.57;100.00;100258.06;5003375;28;20470;-76
2022/11/01 00:59:36;;;;;;;12.88;8.15;;;;;;;12.47;100.00;100257.22;5004165;28;20073;-76
2022/11/01 01:02:02;;;;;;;11.10;9.23;;;;;;;12.45;100.00;100263.63;5006552;28;20061;-75
2022/11/01 01:04:27;;;;;;;13.85;9.00;;;;;;;12.44;100.00;100257.50;5004277;28;20118;-76
2022/11/01 01:06:53;;;;;;;10.77;8.38;;;;;;;12.30;100.00;100273.78;5001473;28;20220;-77
2022/11/01 01:09:19;;;;;;;;;;;;;;;12.19;100.00;100273.91;5005691;28;20042;-76
2022/11/01 01:11:44;;;;;;;15.27;9.13;;;;;;;12.14;100.00;100276.09;5002983;28;19933;-76
2022/11/01 01:14:10;;;;;;;11.93;10.13;;;;;;;12.06;100.00;100268.00;5005700;28;20040;-76
2022/11/01 01:16:36;;;;;;;14.32;9.02;;;;;;;12.08;100.00;100276.63;5003560;28;20088;-77
2022/11/01 01:19:01;;;;;;;20.33;10.23;;;;;;;12.07;100.00;100285.56;5015359;28;20034;-77
2022/11/01 01:21:27;;;;;;;17.85;10.48;;;;;;;12.01;100.00;100278.16;5010854;28;20060;-77
2022/11/01 01:23:53;;;;;;;18.90;11.63;;;;;;;12.01;100.00;100275.50;5003907;28;20496;-78
2022/11/01 01:26:19;;;;;;;14.35;10.00;;;;;;;11.94;100.00;100269.09;5006990;28;20041;-77
2022/11/01 01:28:44;;;;;;;16.67;10.63;;;;;;;12.02;100.00;100272.72;5003400;28;20038;-77
2022/11/01 01:31:11;;;;;;;13.13;9.68;;;;;;;12.07;100.00;100261.75;5005421;28;20021;-75
2022/11/01 01:33:37;;;;;;;11.95;9.50;;;;;;;12.11;100.00;100257.84;5003302;28;20038;-76
2022/11/01 01:36:04;;;;;;;16.83;8.98;;;;;;;12.06;100.00;100268.00;5006295;28;20109;-77
2022/11/01 01:38:30;;;;;;;12.07;9.07;;;;;;;11.96;100.00;100267.16;5003732;28;20053;-77
2022/11/01 01:43:41;;;;;;;14.10;8.60;;;;;;;11.84;100.00;100263.75;5005723;28;20042;-77
2022/11/01 01:46:09;;;;;;;15.85;8.95;;;;;;;11.83;100.00;100257.66;5003715;28;20092;-76
2022/11/01 01:48:39;;;;;;;12.38;8.45;;;;;;;11.87;100.00;100261.69;5004607;28;20124;-77
2022/11/01 01:51:09;;;;;;;14.37;9.03;;;;;;;11.88;100.00;100255.44;5005323;28;20034;-79
2022/11/01 01:53:43;;;;;;;16.20;9.35;;;;;;;11.86;100.00;100249.44;5005207;28;20320;-77
2022/11/01 01:56:13;;;;;;;17.15;9.70;;;;;;;11.95;100.00;100249.59;5003411;28;20034;-78
2022/11/01 01:58:53;;;;;;;13.00;8.65;;;;;;;12.00;100.00;100252.69;5003755;28;20100;-78
2022/11/01 02:01:19;;;;;;;14.88;9.43;;;;;;;12.03;100.00;100255.03;5000500;28;20050;-77
2022/11/01 02:03:46;;;;;;;12.95;8.82;;;;;;;12.12;100.00;100256.88;5006611;28;20042;-78
2022/11/01 02:06:17;;;;;;;14.57;9.77;;;;;;;12.19;100.00;100258.03;5005387;28;20402;-79
2022/11/01 02:08:45;;;;;;;16.10;10.40;;;;;;;12.21;100.00;100262.19;5004455;28;20045;-77
2022/11/01 02:11:13;;;;;;;15.25;9.60;;;;;;;12.15;100.00;100261.91;5005798;28;20359;-76
2022/11/01 02:13:38;;;;;;;20.45;11.77;;;;;;;12.16;100.00;100253.00;5001179;28;20426;-77
2022/11/01 02:16:22;;;;;;;14.93;10.20;;;;;;;12.24;100.00;100250.50;5005870;28;20412;-77
2022/11/01 02:19:00;;;;;;;18.33;10.97;;;;;;;12.29;100.00;100258.88;5004632;28;20425;-77
2022/11/01 02:21:45;;;;;;;16.55;10.00;;;;;;;12.23;100.00;100259.41;5010722;28;20849;-77
2022/11/01 02:24:23;;;;;;;16.23;10.10;;;;;;;12.12;100.00;100267.47;5004229;28;20053;-77
2022/11/01 02:27:09;;;;;;;18.10;10.40;;;;;;;11.97;100.00;100268.81;5006354;28;20033;-77
2022/11/01 02:29:34;;;;;;;;;;;;;;;11.92;100.00;100265.72;5005906;28;20038;-77
2022/11/01 02:32:16;;;;;;;;;;;;;;;11.77;100.00;100271.41;5002546;28;20290;-76
2022/11/01 02:34:57;;;;;;;16.70;9.43;;;;;;;11.74;100.00;100263.72;5004406;28;19957;-78
2022/11/01 02:37:40;;;;;;;18.17;9.40;;;;;;;11.82;100.00;100261.25;5002251;28;20475;-77
2022/11/01 02:40:27;;;;;;;11.68;9.48;;;;;;;11.85;100.00;100271.53;5004329;28;20180;-77
2022/11/01 02:42:59;;;;;;;15.82;9.75;;;;;;;11.86;100.00;100264.44;5003226;28;20054;-77
2022/11/01 02:45:35;;;;;;;13.70;9.85;;;;;;;11.88;100.00;100257.22;5005744;28;20506;-78
2022/11/01 02:48:03;;;;;;;13.63;8.90;;;;;;;11.85;100.00;100258.31;5003442;28;20034;-77
2022/11/01 02:50:42;;;;;;;17.00;10.30;;;;;;;11.82;100.00;100255.97;5005312;28;20395;-77
2022/11/01 02:53:07;;;;;;;13.35;8.93;;;;;;;11.73;100.00;100259.38;5017743;28;20026;-76
2022/11/01 02:55:34;;;;;;;16.38;10.27;;;;;;;11.64;100.00;100262.81;5003226;28;20531;-76
2022/11/01 02:58:12;;;;;;;14.02;9.05;;;;;;;11.59;100.00;100261.53;5007962;28;20029;-77
2022/11/01 03:00:38;;;;;;;21.10;9.63;;;;;;;11.54;100.00;100256.66;5010817;28;20026;-78
2022/11/01 03:03:20;;;;;;;11.35;9.18;;;;;;;11.57;100.00;100256.38;5010418;28;20130;-79
2022/11/01 03:06:01;;;;;;;14.63;9.00;;;;;;;11.52;100.00;100258.56;5006874;28;20108;-78
2022/11/01 03:08:33;;;;;;;14.02;8.40;;;;;;;11.60;100.00;100245.56;5006033;28;20040;-78
2022/11/01 03:11:07;;;;;;;18.70;9.25;;;;;;;11.59;100.00;100249.16;5006966;28;20045;-78
2022/11/01 03:13:50;;;;;;;22.15;9.75;;;;;;;11.46;100.00;100252.00;5005942;28;20100;-78
2022/11/01 03:16:46;;;;;;;17.77;9.63;;;;;;;11.54;100.00;100254.00;5007100;28;20061;-79
2022/11/01 03:19:42;;;;;;;13.15;9.05;;;;;;;11.54;100.00;100246.06;5018197;28;20448;-77
2022/11/01 03:22:28;;;;;;;13.75;9.85;;;;;;;11.49;100.00;100256.19;5005771;28;20033;-79
2022/11/01 03:25:37;;;;;;;15.32;9.90;;;;;;;11.36;100.00;100263.50;5007493;28;20038;-76
2022/11/01 03:28:04;;;;;;;14.75;10.05;;;;;;;11.33;100.00;100263.75;5008998;28;20093;-78
2022/11/01 03:30:33;;;;;;;15.88;9.93;;;;;;;11.44;100.00;100255.75;5001913;28;20037;-76
2022/11/01 03:32:58;;;;;;;16.05;9.65;;;;;;;11.45;100.00;100257.41;5008193;28;20030;-76
2022/11/01 03:35:30;;;;;;;16.55;10.43;;;;;;;11.33;100.00;100253.19;5006209;28;20477;-77
2022/11/01 03:38:03;;;;;;;14.05;9.77;;;;;;;11.37;100.00;100254.59;5005670;28;20037;-78
2022/11/01 03:40:31;;;;;;;18.52;10.48;;;;;;;11.21;100.00;100243.66;5006077;28;20044;-78
2022/11/01 03:43:03;;;;;;;18.50;11.10;;;;;;;11.18;100.00;100244.75;5007654;28;20038;-76
2022/11/01 03:45:31;;;;;;;14.48;10.20;;;;;;;11.19;100.00;100245.59;5009250;28;20038;-77
2022/11/01 03:47:56;;;;;;;16.60;10.43;;;;;;;11.25;100.00;100256.47;5004084;28;20042;-79
2022/11/01 03:50:27;;;;;;;15.43;10.75;;;;;;;11.26;100.00;100247.56;5007945;28;20036;-78
2022/11/01 03:52:53;;;;;;;;;;;;;;;11.29;100.00;100246.50;5006984;28;20038;-79
2022/11/01 03:55:20;;;;;;;15.65;9.32;;;;;;;11.32;100.00;100246.22;5007525;28;20064;-79
2022/11/01 03:57:52;;;;;;;14.10;9.55;;;;;;;11.37;100.00;100254.59;5004414;28;20034;-78
2022/11/01 04:00:22;;;;;;;14.55;9.95;;;;;;;11.37;100.00;100254.59;5007793;28;20030;-78
2022/11/01 04:02:52;;;;;;;15.70;10.57;;;;;;;11.33;100.00;100263.75;5009037;28;20522;-78
2022/11/01 04:05:20;;;;;;;13.65;10.43;;;;;;;11.29;100.00;100257.91;5002886;28;20049;-78
2022/11/01 04:07:46;;;;;;;14.80;9.00;;;;;;;11.30;100.00;100258.75;5009836;28;20069;-78
2022/11/01 04:10:12;;;;;;;17.17;10.52;;;;;;;11.32;100.00;100267.34;5005597;28;20034;-78
2022/11/01 04:12:38;;;;;;;15.30;10.48;;;;;;;11.22;100.00;100263.81;5010922;28;20125;-78
2022/11/01 04:20:45;;;;;;;15.93;11.05;;;;;;;11.31;100.00;100271.00;5013578;28;20076;-77
2022/11/01 04:23:11;;;;;;;14.75;10.27;;;;;;;11.31;100.00;100278.91;5006393;28;20426;-76
2022/11/01 04:25:36;;;;;;;17.33;11.05;;;;;;;11.20;100.00;100269.22;5005304;28;20070;-78
2022/11/01 04:28:02;;;;;;;15.70;11.25;;;;;;;11.21;100.00;100270.06;5008009;28;20041;-77
2022/11/01 04:30:28;;;;;;;14.65;9.15;;;;;;;11.25;100.00;100271.50;5003854;28;20477;-77
2022/11/01 04:32:54;;;;;;;12.55;10.45;;;;;;;11.33;100.00;100271.69;5007146;28;20041;-78
2022/11/01 04:35:21;;;;;;;17.25;10.70;;;;;;;11.31;100.00;100281.56;5003478;28;20041;-78
2022/11/01 04:37:46;;;;;;;16.63;10.52;;;;;;;11.32;100.00;100277.91;5005821;28;20041;-78
2022/11/01 04:40:13;;;;;;;16.98;10.82;;;;;;;11.31;100.00;100271.00;5006039;28;20025;-76
2022/11/01 04:42:39;;;;;;;13.50;9.82;;;;;;;11.35;100.00;100272.41;5004753;28;20084;-77
2022/11/01 04:45:07;;;;;;;21.00;10.88;;;;;;;11.38;100.00;100278.25;5007747;28;20125;-78
2022/11/01 04:47:33;;;;;;;16.13;10.88;;;;;;;11.48;100.00;100265.09;5002320;28;20391;-75
2022/11/01 04:49:59;;;;;;;20.92;10.93;;;;;;;11.48;100.00;100270.38;5008566;28;20029;-76
2022/11/01 04:52:24;;;;;;;12.93;9.95;;;;;;;11.55;100.00;100271.50;5004863;28;20049;-75
2022/11/01 04:54:50;;;;;;;14.45;10.57;;;;;;;11.57;100.00;100264.31;5006555;28;20238;-79
2022/11/01 04:57:21;;;;;;;21.80;12.27;;;;;;;11.54;100.00;100267.22;5004268;28;20049;-78
2022/11/01 04:59:53;;;;;;;18.77;11.68;;;;;;;11.45;100.00;100262.72;5005372;28;20065;-77
2022/11/01 05:02:19;;;;;;;;;;;;;;;11.45;100.00;100268.00;5008182;28;20588;-77
2022/11/01 05:04:45;;;;;;;;;;;;;;;11.49;100.00;100269.41;5005378;28;20382;-77
2022/11/01 05:07:10;;;;;;;;;;;;;;;11.46;100.00;100274.97;5006327;28;19917;-76
2022/11/01 05:09:35;;;;;;;;;;;;;;;11.57;100.00;100266.94;5007920;28;20031;-74
2022/11/01 05:12:01;;;;;;;;;;;;;;;11.56;100.00;100265.25;5003511;28;19913;-75
2022/11/01 05:14:26;;;;;;;;;;;;;;;11.60;100.00;100266.69;5007752;28;19918;-75
2022/11/01 05:16:54;;;;;;;;;;;;;;;11.42;100.00;100252.41;5004056;28;19921;-76
2022/11/01 05:19:19;;;;;;;;;;;;;;;11.33;100.00;100258.47;5026731;28;19929;-76
2022/11/01 05:21:44;;;;;;;;;;;;;;;11.29;100.00;100262.34;5008752;28;20589;-74
2022/11/01 05:24:10;;;;;;;;;;;;;;;11.35;100.00;100261.81;5006383;28;20345;-76
2022/11/01 05:26:35;;;;;;;;;;;;;;;11.30;100.00;100264.03;5007631;28;19921;-74
2022/11/01 05:29:00;;;;;;;;;;;;;;;11.40;100.00;100264.91;5003700;28;20011;-78
2022/11/01 05:31:26;;;;;;;;;;;;;;;11.45;100.00;100268.84;5006367;28;19917;-77
2022/11/01 05:33:51;;;;;;;;;;;;;;;11.51;100.00;100262.19;5004827;28;19921;-77
2022/11/01 05:36:16;;;;;;;;;;;;;;;11.54;100.00;100267.22;5006907;28;20016;-77
2022/11/01 05:38:42;;;;;;;;;;;;;;;11.59;100.00;100265.00;5003342;28;19943;-77
2022/11/01 05:41:07;;;;;;;;;;;;;;;11.64;100.00;100268.09;5006108;28;20263;-77
2022/11/01 05:43:32;;;;;;;;;;;;;;;11.63;100.00;100277.00;5006387;28;20008;-76
2022/11/01 05:45:58;;;;;;;;;;;;;;;11.59;100.00;100291.44;5007353;28;20358;-77
2022/11/01 05:48:23;;;;;;;;;;;;;;;11.52;100.00;100287.66;5005169;28;19921;-75
2022/11/01 05:50:48;;;;;;;;;;;;;;;11.51;100.00;100291.25;5003854;28;19922;-76
2022/11/01 05:53:14;;;;;;;;;;;;;;;11.45;100.00;100289.97;5004335;28;19924;-76
2022/11/01 05:55:39;;;;;;;;;;;;;;;11.41;100.00;100283.28;5003301;28;19917;-76
2022/11/01 05:58:05;;;;;;;;;;;;;;;11.49;100.00;100285.25;5005861;28;19917;-77
2022/11/01 06:00:31;;;;;;;;;;;;;;;11.56;100.00;100286.41;5007262;28;19917;-77
2022/11/01 06:02:57;;;;;;;;;;;;;;;11.60;100.00;100279.91;5005792;28;19925;-77
2022/11/01 06:05:23;;;;;;;;;;;;;;;11.62;100.00;100277.13;5005769;28;19921;-77
2022/11/01 06:07:48;;;;;;;;;;;;;;;11.64;100.00;100272.53;5005676;28;19980;-74
2022/11/01 06:10:13;;;;;;;;;;;;;;;11.61;100.00;100267.50;5004273;28;20008;-77
2022/11/01 06:12:39;;;;;;;;;;;;;;;11.61;100.00;100268.34;5008563;28;19937;-75
2022/11/01 06:15:04;;;;;;;;;;;;;;;11.63;100.00;100282.28;5003988;28;19928;-77
2022/11/01 06:17:29;;;;;;;;;;;;;;;11.67;100.00;100278.41;5007248;28;20306;-77
2022/11/01 06:19:55;;;;;;;;;;;;;;;11.69;100.00;100281.75;5010203;28;19960;-75
2022/11/01 06:22:20;;;;;;;;;;;;;;;11.73;100.00;100287.59;5006442;28;19952;-75
2022/11/01 06:24:45;;;;;;;;;;;;;;;11.75;100.00;100296.28;5007547;28;19959;-75
2022/11/01 06:27:11;;;;;;;;;;;;;;;11.81;100.00;100291.31;5003718;28;19918;-74
2022/11/01 06:29:36;;;;;;;;;;;;;;;11.83;100.00;100294.66;5007167;28;19924;-75
2022/11/01 06:32:02;;;;;;;;;;;;;;;11.86;100.00;100289.09;5005681;28;19928;-75
2022/11/01 06:34:27;;;;;;;;;;;;;;;11.90;100.00;100290.50;5009729;28;19932;-76
2022/11/01 06:36:53;;;;;;;;;;;;;;;11.95;100.00;100294.56;5008525;28;20569;-75
2022/11/01 06:39:18;;;;;;;;;;;;;;;11.95;100.00;100297.22;5007150;28;19924;-76
2022/11/01 06:41:43;;;;;;;;;;;;;;;11.94;100.00;100306.09;5020257;28;19917;-76
2022/11/01 06:44:09;;;;;;;;;;;;;;;11.93;100.00;100309.72;5009994;28;19924;-76
2022/11/01 06:46:34;;;;;;;;;;;;;;;11.87;100.00;100322.50;5010705;28;20077;-76
2022/11/01 06:48:59;;;;;;;;;;;;;;;11.88;100.00;100326.84;5006498;28;19917;-77
2022/11/01 06:51:25;;;;;;;;;;;;;;;11.86;100.00;100320.81;5010892;28;19921;-75
2022/11/01 06:53:50;;;;;;;;;;;;;;;11.88;100.00;100326.00;5007290;28;20016;-76
2022/11/01 06:56:15;;;;;;;;;;;;;;;11.82;100.00;100327.34;5005356;28;20012;-77
2022/11/01 06:58:41;;;;;;;;;;;;;;;11.79;100.00;100335.53;5026855;28;20000;-75
2022/11/01 07:01:06;;;;;;;;;;;;;;;11.82;100.00;100340.59;5006246;28;19971;-77
2022/11/01 07:03:31;;;;;;;;;;;;;;;11.75;100.00;100343.88;5009427;28;20010;-77
2022/11/01 07:05:58;;;;;;;;;;;;;;;11.75;100.00;100350.00;5010108;28;19921;-77
2022/11/01 07:08:24;;;;;;;;;;;;;;;11.78;100.00;100344.44;5005769;28;19929;-78
2022/11/01 07:10:49;;;;;;;;;;;;;;;11.66;100.00;100344.63;5010081;28;19922;-77
2022/11/01 07:13:15;;;;;;;;;;;;;;;11.67;100.00;100352.41;5006113;28;19918;-77
2022/11/01 07:15:40;;;;;;;;;;;;;;;11.75;100.00;100359.75;5009201;28;20004;-76
2022/11/01 07:18:07;;;;;;;;;;;;;;;11.74;100.00;100366.81;5009678;28;19918;-75
2022/11/01 07:20:40;;;;;;;;;;;;;;;11.64;100.00;100373.00;5012397;28;19969;-76
2022/11/01 07:23:07;;;;;;;;;;;;;;;11.75;100.00;100371.16;5008548;28;19924;-75
2022/11/01 07:25:33;;;;;;;;;;;;;;;11.84;100.00;100372.16;5006146;28;20020;-75
2022/11/01 07:27:58;;;;;;;;;;;;;;;11.85;100.00;100377.31;5009652;28;20003;-76
2022/11/01 07:30:24;;;;;;;;;;;;;;;11.88;100.00;100382.38;5005470;28;19921;-77
2022/11/01 07:33:00;;;;;;;;;;;;;;;11.92;100.00;100382.09;5009099;28;19924;-76
2022/11/01 07:35:26;;;;;;;;;;;;;;;11.90;100.00;100385.69;5006938;28;19923;-77
2022/11/01 07:37:52;;;;;;;;;;;;;;;11.80;100.00;100379.53;5010534;28;19917;-76
2022/11/01 07:40:17;;;;;;;;;;;;;;;11.80;100.00;100384.81;5007882;28;20289;-78
2022/11/01 07:42:44;;;;;;;;;;;;;;;11.75;100.00;100376.44;5002688;28;20045;-76
2022/11/01 07:45:10;;;;;;;;;;;;;;;11.75;100.00;100392.31;5009104;28;19921;-77
2022/11/01 07:47:35;;;;;;;;;;;;;;;11.76;100.00;100394.00;5005954;28;19918;-76
2022/11/01 07:50:00;;;;;;;;;;;;;;;11.81;100.00;100390.94;5010366;28;20013;-78
2022/11/01 07:52:26;;;;;;;;;;;;;;;11.87;100.00;100385.13;5006322;28;20003;-78
2022/11/01 07:54:51;;;;;;;;;;;;;;;11.96;100.00;100394.09;4999231;28;19929;-77
2022/11/01 07:57:16;;;;;;;;;;;;;;;12.03;100.00;100401.38;4999986;28;19992;-78
2022/11/01 07:59:42;;;;;;;;;;;;;;;12.11;100.00;100398.06;5000472;28;20036;-76
2022/11/01 08:02:08;;;;;;;;;;;;;;;12.11;100.00;100403.38;5001164;28;19957;-78
2022/11/01 08:04:33;;;;;;;;;;;;;;;12.16;100.00;100401.16;5001070;28;19996;-76
2022/11/01 08:06:58;;;;;;;;;;;;;;;12.23;100.00;100403.16;4999091;28;19928;-75
2022/11/01 08:09:24;;;;;;;;;;;;;;;12.29;100.00;100407.06;5001325;28;19921;-78
2022/11/01 08:11:49;;;;;;;;;;;;;;;12.38;100.00;100405.41;5000142;28;20366;-78
2022/11/01 08:14:14;;;;;;;;;;;;;;;12.41;100.00;100403.34;5018663;28;20008;-77
2022/11/01 08:16:40;;;;;;;19.63;13.77;;;;;;;12.45;100.00;100415.34;5005551;28;19914;-77
2022/11/01 08:19:07;;;;;;;22.37;16.20;;;;;;;12.56;100.00;100415.25;5003944;28;20429;-77
2022/11/01 08:21:33;;;;;;;24.70;15.73;;;;;;;12.61;100.00;100413.03;5011721;28;20045;-76
2022/11/01 08:23:58;;;;;;;24.17;15.40;;;;;;;12.60;100.00;100408.72;5007426;28;20030;-75
2022/11/01 08:26:24;;;;;;;24.98;15.13;;;;;;;12.53;100.00;100404.94;5003916;28;20038;-75
2022/11/01 08:28:51;;;;;;;22.67;15.13;;;;;;;12.54;100.00;100403.97;5006963;28;20179;-75
2022/11/01 08:31:16;;;;;;;27.88;14.65;;;;;;;12.53;100.00;100410.22;5004020;28;20042;-76
2022/11/01 08:33:42;;;;;;;24.17;15.98;;;;;;;12.59;100.00;100408.84;5007441;28;20041;-75
2022/11/01 08:36:07;;;;;;;18.92;13.82;;;;;;;12.65;100.00;100409.16;5006394;28;20025;-77
2022/11/01 08:38:33;;;;;;;21.23;14.95;;;;;;;12.73;100.00;100417.25;5004215;28;20030;-77
2022/11/01 08:40:59;;;;;;;20.45;14.13;;;;;;;12.58;100.00;100418.59;5005608;28;20433;-76
2022/11/01 08:43:24;;;;;;;22.83;15.13;;;;;;;12.53;100.00;100425.28;5006109;28;20030;-75
2022/11/01 08:45:50;;;;;;;23.40;15.40;;;;;;;12.54;100.00;100422.50;5006847;28;20387;-76
2022/11/01 08:48:15;;;;;;;22.40;15.48;;;;;;;12.55;100.00;100429.44;5007401;28;20034;-75
2022/11/01 08:50:41;;;;;;;25.10;16.35;;;;;;;12.60;100.00;100427.25;5015181;28;20029;-77
2022/11/01 08:53:12;;;;;;;22.17;14.02;;;;;;;12.78;100.00;100429.25;5003481;28;20542;-75
2022/11/01 08:55:38;;;;;;;30.13;15.10;;;;;;;12.70;100.00;100427.28;5003361;28;20359;-75
2022/11/01 08:58:05;;;;;;;20.92;14.90;;;;;;;12.67;100.00;100428.38;5004467;28;20081;-74
2022/11/01 09:00:31;;;;;;;24.52;15.43;;;;;;;12.71;100.00;100445.69;4998617;28;20053;-75
2022/11/01 09:02:56;;;;;;;24.08;15.27;;;;;;;12.69;100.00;100444.97;5000021;28;20018;-75
2022/11/01 09:05:22;;;;;;;23.20;15.82;;;;;;;12.61;100.00;100447.44;4998876;28;20160;-74
2022/11/01 09:07:48;;;;;;;25.45;15.27;;;;;;;12.72;100.00;100444.69;5015169;28;20035;-74
2022/11/01 09:10:15;;;;;;;23.92;15.45;;;;;;;12.81;100.00;100450.16;4999198;28;20124;-74
2022/11/01 09:12:41;;;;;;;17.88;14.15;;;;;;;12.78;100.00;100458.38;5007435;28;20033;-74
2022/11/01 09:15:07;;;;;;;19.60;13.40;;;;;;;12.73;100.00;100456.13;5009650;28;20025;-75
2022/11/01 09:17:33;;;;;;;23.90;14.48;;;;;;;12.57;100.00;100461.94;5004050;28;20048;-77
2022/11/01 09:19:59;;;;;;;22.80;13.82;;;;;;;12.61;100.00;100459.84;4999556;28;20351;-76
2022/11/01 09:22:25;;;;;;;22.45;13.85;;;;;;;12.63;100.00;100458.75;4995810;28;20129;-74
2022/11/01 09:24:51;;;;;;;20.52;13.13;;;;;;;12.66;100.00;100469.06;4996970;28;20029;-75
2022/11/01 09:27:16;;;;;;;20.80;13.93;;;;;;;12.60;100.00;100472.28;4996028;28;20483;-74
2022/11/01 09:29:42;;;;;;;23.98;14.10;;;;;;;12.43;100.00;100472.88;4995757;28;20404;-76
2022/11/01 09:32:07;;;;;;;23.13;13.57;;;;;;;12.54;100.00;100469.31;4996824;28;20033;-75
2022/11/01 09:34:33;;;;;;;22.65;15.05;;;;;;;12.58;100.00;100482.16;4996050;28;20030;-75
2022/11/01 09:36:59;;;;;;;24.25;13.68;;;;;;;12.50;100.00;100484.59;4997395;28;20513;-75
2022/11/01 09:39:25;;;;;;;19.42;13.70;;;;;;;12.47;100.00;100479.59;4995272;28;20784;-75
2022/11/01 09:41:58;;;;;;;18.73;13.50;;;;;;;12.43;100.00;100478.16;5000837;28;20065;-74
2022/11/01 09:44:31;;;;;;;18.42;14.40;;;;;;;12.38;100.00;100477.72;5009203;28;20100;-74
2022/11/01 09:47:02;;;;;;;19.58;13.25;;;;;;;12.56;100.00;100480.59;4999893;28;20475;-75
2022/11/01 09:49:32;;;;;;;19.95;14.00;;;;;;;12.64;100.00;100484.25;4998709;28;20053;-76
2022/11/01 09:51:58;;;;;;;20.92;14.48;;;;;;;12.59;100.00;100490.94;5000615;28;20340;-75
2022/11/01 09:54:25;;;;;;;24.05;14.98;;;;;;;12.51;100.00;100491.59;5002382;28;20117;-75
2022/11/01 09:57:07;;;;;;;27.00;14.40;;;;;;;12.47;100.00;100494.63;5002016;28;20038;-75
2022/11/01 09:59:42;;;;;;;24.27;14.60;;;;;;;12.48;100.00;100506.91;4999502;28;20116;-74
2022/11/01 10:02:35;;;;;;;25.65;15.10;;;;;;;12.48;100.00;100506.91;4999435;28;20034;-74
2022/11/01 10:05:25;;;;;;;24.88;15.57;;;;;;;12.40;100.00;100515.50;4998970;28;20038;-77
2022/11/01 10:08:17;;;;;;;24.70;15.10;;;;;;;12.30;100.00;100515.44;5002869;28;20141;-73
2022/11/01 10:10:51;;;;;;;25.20;16.02;;;;;;;12.34;100.00;100516.00;4992200;28;20589;-74
2022/11/01 10:13:35;;;;;;;24.98;16.50;;;;;;;12.41;100.00;100501.28;5003382;28;20030;-78
2022/11/01 10:16:13;;;;;;;24.38;16.50;;;;;;;12.56;100.00;100499.97;5003730;28;20038;-75
2022/11/01 10:19:04;;;;;;;24.85;15.25;;;;;;;12.71;100.00;100498.66;5001630;28;20062;-75
2022/11/01 10:22:00;;;;;;;25.98;15.90;;;;;;;12.56;100.00;100494.66;5002692;28;20050;-74
2022/11/01 10:24:45;;;;;;;24.55;16.33;;;;;;;12.56;100.00;100492.03;5007444;28;20127;-77
2022/11/01 10:27:24;;;;;;;30.50;17.25;;;;;;;12.51;100.00;100491.59;5007470;28;20042;-76
2022/11/01 10:30:09;;;;;;;23.10;16.38;;;;;;;12.47;100.00;100484.88;5006535;28;20057;-78
2022/11/01 10:32:45;;;;;;;24.63;16.60;;;;;;;12.54;100.00;100480.75;5007041;28;20373;-77
2022/11/01 10:35:24;;;;;;;31.80;17.95;;;;;;;12.63;100.00;100487.88;5005982;28;20040;-76
2022/11/01 10:37:57;;;;;;;25.10;16.58;;;;;;;12.62;100.00;100486.19;5007784;28;20173;-76
2022/11/01 10:40:28;;;;;;;26.77;16.10;;;;;;;12.64;100.00;100481.63;5011410;28;20402;-78
2022/11/01 10:42:53;;;;;;;27.85;16.35;;;;;;;12.58;100.00;100487.44;5013008;28;20483;-74
2022/11/01 10:45:22;;;;;;;24.00;16.65;;;;;;;12.54;100.00;100480.75;5012630;28;20029;-76
2022/11/01 10:47:52;;;;;;;33.72;19.30;;;;;;;12.49;100.00;100472.34;5008744;28;20471;-77
2022/11/01 10:50:23;;;;;;;33.67;20.17;;;;;;;12.61;100.00;100468.63;5001290;28;20076;-75
2022/11/01 10:52:51;;;;;;;30.67;21.13;;;;;;;12.67;100.00;100464.59;5011434;28;20026;-78
2022/11/01 10:55:28;;;;;;;32.72;20.88;;;;;;;12.73;100.00;100449.00;5006406;28;20109;-75
2022/11/01 10:58:01;;;;;;;36.55;20.77;;;;;;;12.90;100.00;100449.38;5005950;28;20037;-77
2022/11/01 11:00:31;;;;;;;33.47;21.05;;;;;;;13.03;100.00;100445.47;5006324;28;20109;-76
2022/11/01 11:03:03;;;;;;;35.17;19.87;;;;;;;13.12;100.00;100433.25;5012122;28;20073;-75
2022/11/01 11:05:30;;;;;;;33.63;19.95;;;;;;;13.26;100.00;100434.63;5013431;28;20096;-76
2022/11/01 11:07:56;;;;;;;36.03;21.15;;;;;;;13.34;100.00;100438.28;5012882;28;20049;-74
2022/11/01 11:10:28;;;;;;;36.60;22.35;;;;;;;13.42;100.00;100438.44;5013007;28;20030;-75
2022/11/01 11:13:01;;;;;;;33.10;21.73;;;;;;;13.39;100.00;100441.34;5013374;28;20041;-75
2022/11/01 11:15:42;;;;;;;32.47;22.67;;;;;;;13.41;100.00;100444.72;5012922;28;20030;-75
2022/11/01 11:18:18;;;;;;;31.20;23.75;;;;;;;13.28;100.00;100441.50;5008969;28;20042;-76
2022/11/01 11:20:48;;;;;;;36.95;23.23;;;;;;;13.31;100.00;100441.19;5010037;28;20707;-76
2022/11/01 11:23:17;;;;;;;;;;;;;;;13.23;100.00;100443.72;5008089;28;20057;-74
2022/11/01 11:25:44;;;;;;;37.60;24.40;;;;;;;13.08;100.00;100447.69;5006888;28;19999;-75
2022/11/01 11:28:22;;;;;;;40.90;25.60;;;;;;;13.07;100.00;100446.06;5012587;28;20053;-75
2022/11/01 11:30:48;;;;;;;37.75;25.08;;;;;;;13.14;100.00;100447.19;5009814;28;20034;-75
2022/11/01 11:33:18;;;;;;;39.30;25.17;;;;;;;13.11;100.00;100436.84;5011959;28;20229;-75
2022/11/01 11:35:54;;;;;;;39.93;26.27;;;;;;;13.14;100.00;100436.59;5008571;28;20034;-74
2022/11/01 11:38:42;;;;;;;35.78;24.33;;;;;;;13.15;100.00;100432.97;5009667;28;20038;-74
2022/11/01 11:41:10;;;;;;;43.65;23.90;;;;;;;13.21;100.00;100432.41;5001540;28;20042;-75
2022/11/01 11:43:39;;;;;;;36.10;24.38;;;;;;;13.24;100.00;100432.16;5012519;28;20030;-75